• Join FlightAware (Why Join?)
  • Login
  • US Flag 
10:31PM EDT


 

Airport Tracker/Info


-or-


 

Live Flight TrackerFlight Track Log ✈ N8050J ✈ 09-Jun-2013 ✈ KJST - 39N

Flight Track Log - Related Links

Times and Time Zones

All times are in EDT time to prevent confusion due to time zone crossing. See the N8050J flight status page for this flight to view local times or setup timezone preferences in your user account.

Time Position Orientation Groundspeed Altitude Reporting Facility
EDT Latitude Longitude Course Direction KTS MPH feet Rate Location/Type
02:12PM 40.3058 -78.8269 147° Southeast 70 81 3,100  Level Cleveland Center
02:12PM 40.2933 -78.8164 147° Southeast 77 89 3,600 780 Climbing Cleveland Center
02:13PM 40.2761 -78.7953 137° Southeast 87 100 4,400 720 Climbing Cleveland Center
02:14PM 40.2592 -78.7739 136° Southeast 89 102 5,100 600 Climbing Cleveland Center
02:15PM 40.2442 -78.7553 137° Southeast 92 106 5,500 600 Climbing Cleveland Center
02:16PM 40.2314 -78.7367 132° Southeast 96 110 5,900 720 Climbing Cleveland Center
02:17PM 40.2186 -78.7125 125° Southeast 111 128 6,600 600 Climbing Cleveland Center
02:18PM 40.2283 -78.6742 72° East 92 106 7,200 600 Climbing Cleveland Center
02:19PM 40.2403 -78.6331 69° East 99 114 7,800 600 Climbing Cleveland Center
02:20PM 40.2500 -78.5919 73° East 110 127 8,400 600 Climbing Cleveland Center
02:21PM 40.2597 -78.5508 73° East 110 127 9,000 240 Climbing Cleveland Center
02:22PM 40.2692 -78.5014 76° East 120 138 8,900 -60 Descending Cleveland Center
02:23PM 40.2744 -78.4469 83° East 135 155 8,900  Level Cleveland Center
02:24PM 40.2817 -78.3922 80° East 146 168 8,900  Level Cleveland Center
02:25PM 40.2869 -78.3350 83° East 146 168 8,900  Level Cleveland Center
02:26PM 40.2964 -78.2364 83° East 162 186 9,000  Climbing New York Center
02:27PM 40.3022 -78.1797 82° East 156 180 9,000  Level New York Center
02:28PM 40.3078 -78.1233 83° East 156 180 9,000  Level New York Center
02:29PM 40.3133 -78.0667 83° East 156 180 9,000  Level New York Center
02:30PM 40.3167 -78.0097 86° East 156 180 9,000  Level New York Center
02:31PM 40.3222 -77.9533 83° East 156 180 9,000  Level New York Center
02:32PM 40.3300 -77.8967 80° East 156 180 9,000  Level New York Center
02:33PM 40.3333 -77.8400 86° East 156 180 9,000  Level New York Center
02:34PM 40.3389 -77.7806 83° East 161 185 9,000  Level New York Center
02:35PM 40.3464 -77.7242 80° East 161 185 9,000  Level New York Center
02:36PM 40.3497 -77.6672 86° East 161 185 9,000  Level New York Center
02:37PM 40.3533 -77.6075 85° East 161 185 9,000  Level New York Center
02:38PM 40.3592 -77.5428 83° East 161 185 9,000  Level New York Center
02:39PM 40.3619 -77.4914 86° East 161 185 9,000  Level New York Center
02:40PM 40.3617 -77.4258 90° East 155 178 9,000  Level New York Center
02:41PM 40.3603 -77.3739 92° East 155 178 9,000  Level New York Center
02:42PM 40.3575 -77.3111 93° East 161 185 9,000  Level New York Center
02:43PM 40.3561 -77.2592 92° East 161 185 9,000  Level New York Center
02:44PM 40.3533 -77.1961 93° East 161 185 9,000  Level New York Center
02:45PM 40.3519 -77.1444 92° East 161 185 9,000  Level New York Center
02:46PM 40.3511 -77.0817 91° East 161 185 9,000  Level New York Center
02:47PM 40.3497 -77.0297 92° East 161 185 9,000  Level New York Center
02:48PM 40.3469 -76.9667 93° East 161 185 9,000  Level New York Center
02:49PM 40.3458 -76.9094 91° East 166 191 9,000  Level New York Center
02:50PM 40.3425 -76.8492 94° East 159 183 9,000  Level New York Center
02:51PM 40.3478 -76.7897 83° East 159 183 9,000  Level New York Center
02:52PM 40.3547 -76.7331 81° East 159 183 9,000  Level New York Center
02:53PM 40.3614 -76.6819 80° East 159 183 9,000  Level New York Center
02:54PM 40.3664 -76.6278 83° East 159 183 9,000  Level New York Center
02:55PM 40.3758 -76.5633 79° East 159 183 9,000  Level New York Center
02:56PM 40.3825 -76.5067 81° East 159 183 9,000  Level New York Center
02:57PM 40.3897 -76.4472 81° East 159 183 9,000  Level New York Center
02:58PM 40.3964 -76.3961 80° East 159 183 9,000  Level New York Center
02:59PM 40.4031 -76.3394 81° East 159 183 9,000 -180 Level New York Center
03:00PM 40.4103 -76.2772 81° East 159 183 8,700 -360 Descending New York Center
03:01PM 40.4192 -76.2181 79° East 159 183 8,300 -480 Descending New York Center
03:02PM 40.4261 -76.1583 81° East 159 183 7,800 -540 Descending New York Center
03:03PM 40.4331 -76.0989 81° East 159 183 7,300 -480 Descending New York Center
03:04PM 40.4397 -76.0422 81° East 159 183 6,900 -540 Descending New York Center
03:05PM 40.4464 -75.9856 81° East 159 183 6,300 -480 Descending New York Center
03:06PM 40.4531 -75.9286 81° East 159 183 6,000 -180 Descending New York Center
03:07PM 40.4575 -75.8744 84° East 153 176 6,000  Level New York Center
03:08PM 40.4639 -75.8258 80° East 153 176 6,000  Level New York Center
03:09PM 40.4703 -75.7717 81° East 148 170 6,000  Level New York Center
03:10PM 40.4769 -75.7122 82° East 148 170 6,000  Level New York Center
03:11PM 40.4833 -75.6581 81° East 148 170 6,000  Level New York Center
03:12PM 40.4894 -75.6094 81° East 143 165 6,000  Level New York Center
03:13PM 40.4961 -75.5497 82° East 143 165 6,000 -180 Level New York Center
03:15PM 40.5006 -75.4929 84° East  Level FlightAware Approximate
03:18PM 40.5167 -75.2833 66° East 152 175 5,000  Level New York TRACON
03:19PM 40.5333 -75.2333 66° East 148 170 5,000  Level New York TRACON
03:20PM 40.5333 -75.1833 90° East 144 166 5,000 -60 Level New York TRACON
03:21PM 40.5333 -75.1333 90° East 139 160 4,900 -240 Descending New York TRACON
03:22PM 40.5285 -75.1308 84° East  Level FlightAware Approximate
03:22PM 40.5167 -75.0833 114° Southeast 144 166 4,600  Level New York TRACON
03:23PM 40.5324 -75.0790 84° East  Level FlightAware Approximate
03:23PM 40.5000 -75.0333 114° Southeast 146 168 4,400  Level New York TRACON
03:24PM 40.5454 -75.0304 66° East  Level FlightAware Approximate
03:24PM 40.5000 -74.9833 90° East 141 162 3,900  Level New York TRACON
03:25PM 40.4833 -74.9333 114° Southeast 142 163 3,500 -240 Descending New York TRACON
03:26PM 40.4667 -74.9000 123° Southeast 135 155 3,500  Level New York TRACON
03:28PM 40.4467 -74.8285 110° East  Level Estimated
03:35PM 40.3991 -74.6590 110° East  Level Estimated
03:36PM 40.3991 -74.6590 North  Level Estimated
03:37PM 40.3991 -74.6590 North  Level Estimated
03:38PM 40.3991 -74.6590 North  Level Estimated